Terminal Aerodrome Forecast
Issued by NWS Memphis, TN

Home | Current Version | Previous Version | Text Only | Print | Product List | Glossary On
Versions: 1 2 3 4 5 6 7 8 9 10 11 12 13 14 15 16 17 18 19 20 21 22 23 24 25 26 27 28 29 30
000
FTUS44 KMEG 262149 AAB
TAFMEM
TAF AMD
KMEM 262149Z 2622/2718 01009KT P6SM OVC025
     FM270200 02010KT P6SM BKN030
     FM270400 04012KT P6SM SCT040 BKN250
     FM270600 05012KT P6SM BKN250
     FM271400 06013G18KT P6SM BKN120 OVC250=

USA.gov is the U.S. government's official web portal to all federal, state and local government web resources and services.